Time;durP1;ratioP1;P1;durP2;ratioP2;P2;SDS_P1;SDS_P2;PMS_P1;PMS_P2;Temp;Humidity;BMP_temperature;BMP_pressure;BME280_temperature;BME280_humidity;BME280_pressure;Samples;Min_cycle;Max_cycle;Signal;HPM_P1;HPM_P2
2024/02/27 00:02:01;;;;;;;15.50;10.00;;;2.30;99.90;;;;;;7371238;19;20019;-70
2024/02/27 00:04:28;;;;;;;14.35;10.13;;;2.30;99.90;;;;;;7368375;19;20019;-74
2024/02/27 00:06:57;;;;;;;16.58;11.10;;;2.30;99.90;;;;;;7365128;19;20022;-74
2024/02/27 00:09:24;;;;;;;16.35;11.25;;;2.30;99.90;;;;;;7362772;19;20022;-71
2024/02/27 00:11:54;;;;;;;16.85;12.10;;;2.30;99.90;;;;;;7374390;19;20011;-74
2024/02/27 00:14:23;;;;;;;19.15;12.82;;;2.30;99.90;;;;;;7371660;19;20029;-74
2024/02/27 00:16:51;;;;;;;22.63;14.70;;;2.20;99.90;;;;;;7375753;19;20039;-71
2024/02/27 00:19:18;;;;;;;19.83;14.68;;;2.20;99.90;;;;;;7378547;19;20057;-76
2024/02/27 00:21:45;;;;;;;20.45;13.18;;;2.20;99.90;;;;;;7381576;19;20821;-70
2024/02/27 00:24:13;;;;;;;20.67;13.65;;;2.20;99.90;;;;;;7371001;19;20023;-76
2024/02/27 00:26:42;;;;;;;25.70;13.43;;;2.20;99.90;;;;;;7372004;19;20026;-71
2024/02/27 00:29:08;;;;;;;17.05;13.32;;;2.20;99.90;;;;;;7365991;19;20022;-73
2024/02/27 00:31:35;;;;;;;17.25;12.15;;;2.20;99.90;;;;;;7376612;19;20640;-70
2024/02/27 00:34:01;;;;;;;19.83;12.60;;;2.20;99.90;;;;;;7378651;19;20022;-74
2024/02/27 00:36:28;;;;;;;17.33;12.13;;;2.20;99.90;;;;;;7373369;19;20776;-74
2024/02/27 00:38:57;;;;;;;16.30;12.73;;;2.20;99.90;;;;;;7374896;19;20909;-71
2024/02/27 00:41:24;;;;;;;21.15;14.55;;;2.20;99.90;;;;;;7376042;19;20025;-76
2024/02/27 00:43:52;;;;;;;21.33;13.98;;;2.10;99.90;;;;;;7373025;19;20053;-74
2024/02/27 00:46:18;;;;;;;22.67;14.48;;;2.20;99.90;;;;;;7376759;19;20030;-70
2024/02/27 00:48:45;;;;;;;20.40;13.82;;;2.10;99.90;;;;;;7367195;19;20782;-70
2024/02/27 00:51:12;;;;;;;22.30;13.20;;;2.10;99.90;;;;;;7374189;19;20017;-70
2024/02/27 00:53:41;;;;;;;19.75;12.90;;;2.10;99.90;;;;;;7377226;19;20478;-74
2024/02/27 00:56:09;;;;;;;18.45;11.50;;;2.10;99.90;;;;;;7372766;19;20778;-71
2024/02/27 00:58:36;;;;;;;20.58;13.85;;;2.00;99.90;;;;;;7376710;19;20018;-74
2024/02/27 01:01:05;;;;;;;20.85;12.88;;;1.90;99.90;;;;;;7373275;19;20541;-74
2024/02/27 01:03:31;;;;;;;19.77;12.02;;;1.90;99.90;;;;;;7368659;19;20035;-70
2024/02/27 01:05:58;;;;;;;22.95;13.90;;;2.00;99.90;;;;;;7377881;19;20018;-75
2024/02/27 01:08:24;;;;;;;26.02;13.13;;;1.90;99.90;;;;;;7376057;19;20760;-72
2024/02/27 01:10:52;;;;;;;22.02;12.93;;;1.90;99.90;;;;;;7368514;19;20463;-74
2024/02/27 01:13:19;;;;;;;19.75;12.05;;;1.90;99.90;;;;;;7373756;19;20780;-75
2024/02/27 01:15:45;;;;;;;18.45;12.30;;;1.80;99.90;;;;;;7370804;19;20022;-74
2024/02/27 01:18:11;;;;;;;18.85;12.25;;;1.80;99.90;;;;;;7380007;19;20039;-75
2024/02/27 01:20:38;;;;;;;16.60;12.02;;;1.80;99.90;;;;;;7374458;19;20015;-74
2024/02/27 01:23:05;;;;;;;20.85;12.88;;;1.80;99.90;;;;;;7378918;19;20019;-72
2024/02/27 01:25:32;;;;;;;21.63;12.70;;;1.80;99.90;;;;;;7371164;19;20366;-74
2024/02/27 01:27:58;;;;;;;18.75;11.85;;;1.70;99.90;;;;;;7375404;19;20019;-71
2024/02/27 01:30:25;;;;;;;17.98;12.90;;;1.70;99.90;;;;;;7364536;19;20022;-71
2024/02/27 01:32:52;;;;;;;20.27;13.60;;;1.70;99.90;;;;;;7376943;19;20440;-72
2024/02/27 01:35:19;;;;;;;20.65;14.07;;;1.70;99.90;;;;;;7366913;19;20015;-71
2024/02/27 01:37:45;;;;;;;19.38;12.80;;;1.70;99.90;;;;;;7377949;19;20023;-75
2024/02/27 01:40:12;;;;;;;23.25;15.88;;;1.70;99.90;;;;;;7372363;19;20128;-75
2024/02/27 01:42:44;;;;;;;23.42;14.55;;;1.70;99.90;;;;;;7374001;19;20026;-75
2024/02/27 01:45:25;;;;;;;18.55;12.75;;;1.70;99.90;;;;;;7374678;19;20059;-75
2024/02/27 01:47:53;;;;;;;23.67;14.23;;;1.70;99.90;;;;;;7376159;19;20022;-74
2024/02/27 01:50:23;;;;;;;24.83;15.20;;;1.70;99.90;;;;;;7364488;19;20049;-71
2024/02/27 01:52:52;;;;;;;21.13;13.98;;;1.60;99.90;;;;;;7377136;19;20019;-71
2024/02/27 01:55:20;;;;;;;21.67;13.35;;;1.70;99.90;;;;;;7368840;19;20018;-74
2024/02/27 01:57:48;;;;;;;20.48;13.77;;;1.60;99.90;;;;;;7376078;19;20039;-71
2024/02/27 02:00:15;;;;;;;20.42;13.27;;;1.60;99.90;;;;;;7369595;19;20047;-74
2024/02/27 02:02:44;;;;;;;23.13;14.10;;;1.60;99.90;;;;;;7373344;19;20712;-75
2024/02/27 02:05:11;;;;;;;26.08;14.32;;;1.60;99.90;;;;;;7368574;19;20471;-72
2024/02/27 02:07:40;;;;;;;21.85;13.82;;;1.50;99.90;;;;;;7374524;19;20014;-71
2024/02/27 02:10:11;;;;;;;23.38;14.32;;;1.50;99.90;;;;;;7367525;19;20035;-71
2024/02/27 02:12:37;;;;;;;23.33;14.00;;;1.50;99.90;;;;;;7374803;19;20757;-71
2024/02/27 02:15:06;;;;;;;23.85;15.13;;;1.40;99.90;;;;;;7372675;19;20027;-75
2024/02/27 02:17:33;;;;;;;26.73;14.10;;;1.40;99.90;;;;;;7379047;19;20017;-75
2024/02/27 02:20:05;;;;;;;23.08;13.35;;;1.40;99.90;;;;;;7378976;19;20035;-75
2024/02/27 02:22:42;;;;;;;21.38;13.50;;;1.30;99.90;;;;;;7363527;19;20027;-75
2024/02/27 02:25:11;;;;;;;22.35;13.68;;;1.30;99.90;;;;;;7371856;19;20015;-71
2024/02/27 02:27:41;;;;;;;27.80;15.45;;;1.30;99.90;;;;;;7372764;19;20018;-75
2024/02/27 02:30:11;;;;;;;24.40;15.90;;;1.20;99.90;;;;;;7369433;19;20010;-75
2024/02/27 02:32:49;;;;;;;25.42;14.27;;;1.20;99.90;;;;;;7374834;19;20780;-75
2024/02/27 02:35:17;;;;;;;21.10;14.05;;;1.20;99.90;;;;;;7364253;19;20022;-75
2024/02/27 02:37:48;;;;;;;25.60;14.20;;;1.20;99.90;;;;;;7374549;19;20029;-75
2024/02/27 02:40:17;;;;;;;26.88;14.63;;;1.20;99.90;;;;;;7364783;19;20022;-72
2024/02/27 02:42:45;;;;;;;26.88;13.85;;;1.20;99.90;;;;;;7371374;19;20018;-72
2024/02/27 02:45:13;;;;;;;25.30;14.10;;;1.20;99.90;;;;;;7365890;19;20018;-71
2024/02/27 02:47:41;;;;;;;25.48;13.98;;;1.20;99.90;;;;;;7371482;19;20010;-72
2024/02/27 02:50:08;;;;;;;24.77;15.18;;;1.20;99.90;;;;;;7364651;19;20513;-75
2024/02/27 02:52:36;;;;;;;30.40;16.60;;;1.20;99.90;;;;;;7373875;19;20474;-75
2024/02/27 02:55:05;;;;;;;29.92;14.60;;;1.10;99.90;;;;;;7375914;19;20034;-75
2024/02/27 02:57:36;;;;;;;24.60;14.15;;;1.20;99.90;;;;;;7374037;19;20022;-75
2024/02/27 03:00:08;;;;;;;32.95;16.30;;;1.20;99.90;;;;;;7379057;19;20018;-75
2024/02/27 03:02:35;;;;;;;;;;;1.10;99.90;;;;;;7373504;19;20011;-76
2024/02/27 03:05:03;;;;;;;27.50;15.60;;;1.20;99.90;;;;;;7381826;19;20475;-72
2024/02/27 03:07:30;;;;;;;27.27;15.85;;;1.20;99.90;;;;;;7370858;19;20456;-73
2024/02/27 03:09:58;;;;;;;27.85;15.98;;;1.20;99.90;;;;;;7371130;19;20041;-72
2024/02/27 03:12:25;;;;;;;30.40;17.02;;;1.20;99.90;;;;;;7371810;19;20030;-72
2024/02/27 03:14:55;;;;;;;31.20;16.85;;;1.10;99.90;;;;;;7365366;19;20014;-74
2024/02/27 03:17:22;;;;;;;28.75;16.50;;;1.10;99.90;;;;;;7370882;19;20010;-74
2024/02/27 03:19:50;;;;;;;32.80;17.25;;;1.10;99.90;;;;;;7374501;19;20015;-74
2024/02/27 03:22:17;;;;;;;33.55;17.65;;;1.20;99.90;;;;;;7371154;19;20018;-72
2024/02/27 03:24:46;;;;;;;30.80;16.88;;;1.10;99.90;;;;;;7371014;19;20010;-72
2024/02/27 03:27:13;;;;;;;32.25;16.25;;;1.10;99.90;;;;;;7364856;19;20042;-74
2024/02/27 03:29:41;;;;;;;35.75;18.98;;;1.10;99.90;;;;;;7372135;19;20029;-74
2024/02/27 03:32:08;;;;;;;30.77;16.45;;;1.10;99.90;;;;;;7371158;19;20026;-75
2024/02/27 03:34:37;;;;;;;33.13;18.25;;;1.10;99.90;;;;;;7370308;19;20491;-75
2024/02/27 03:37:04;;;;;;;34.35;16.48;;;1.10;99.90;;;;;;7373740;19;20021;-74
2024/02/27 03:39:32;;;;;;;32.50;16.42;;;1.10;99.90;;;;;;7371222;19;20026;-73
2024/02/27 03:41:59;;;;;;;31.42;16.92;;;1.00;99.90;;;;;;7370485;19;20749;-74
2024/02/27 03:44:26;;;;;;;31.77;17.88;;;1.00;99.90;;;;;;7367218;19;20014;-74
2024/02/27 03:46:53;;;;;;;32.72;16.98;;;1.10;99.90;;;;;;7370791;19;21070;-72
2024/02/27 03:49:21;;;;;;;34.00;18.17;;;1.00;99.90;;;;;;7372209;19;20065;-75
2024/02/27 03:51:49;;;;;;;34.42;18.08;;;1.10;99.90;;;;;;7381745;19;20015;-74
2024/02/27 03:54:16;;;;;;;36.05;18.20;;;1.00;99.90;;;;;;7378056;19;20664;-74
2024/02/27 03:56:43;;;;;;;35.03;17.45;;;1.00;99.90;;;;;;7376600;19;20033;-73
2024/02/27 03:59:11;;;;;;;32.42;16.85;;;1.00;99.90;;;;;;7379907;19;20021;-72
2024/02/27 04:01:38;;;;;;;43.30;18.15;;;1.00;99.90;;;;;;7366702;19;20658;-73
2024/02/27 04:04:08;;;;;;;33.83;17.33;;;1.00;99.90;;;;;;7377298;19;20707;-76
2024/02/27 04:06:35;;;;;;;38.42;19.80;;;0.90;99.90;;;;;;7376194;19;20015;-76
2024/02/27 04:09:02;;;;;;;38.40;18.75;;;0.90;99.90;;;;;;7383511;19;20007;-75
2024/02/27 04:11:30;;;;;;;40.25;18.48;;;1.00;99.90;;;;;;7375100;19;20015;-75
2024/02/27 04:13:59;;;;;;;38.90;18.48;;;1.00;99.90;;;;;;7383412;19;20011;-75
2024/02/27 04:16:26;;;;;;;31.52;16.92;;;1.00;99.90;;;;;;7375032;19;20030;-73
2024/02/27 04:18:54;;;;;;;38.92;18.70;;;0.90;99.90;;;;;;7376252;19;20441;-73
2024/02/27 04:21:22;;;;;;;38.72;18.38;;;0.90;99.90;;;;;;7369143;19;20482;-73
2024/02/27 04:23:52;;;;;;;36.03;17.17;;;0.90;99.90;;;;;;7375115;19;20605;-73
2024/02/27 04:26:19;;;;;;;38.38;18.95;;;0.90;99.90;;;;;;7364306;19;20042;-72
2024/02/27 04:28:46;;;;;;;34.28;17.85;;;0.80;99.90;;;;;;7371849;19;20011;-73
2024/02/27 04:31:13;;;;;;;38.30;18.73;;;0.80;99.90;;;;;;7370712;19;20017;-71
2024/02/27 04:33:43;;;;;;;36.45;18.20;;;0.70;99.90;;;;;;7370233;19;20094;-72
2024/02/27 04:36:10;;;;;;;40.63;19.17;;;0.70;99.90;;;;;;7373837;19;20013;-72
2024/02/27 04:38:42;;;;;;;48.92;18.73;;;0.70;99.90;;;;;;7371993;19;20042;-72
2024/02/27 04:41:09;;;;;;;40.92;19.75;;;0.80;99.90;;;;;;7372501;19;20057;-72
2024/02/27 04:43:39;;;;;;;39.15;18.98;;;0.90;99.90;;;;;;7369352;19;20014;-71
2024/02/27 04:46:06;;;;;;;41.13;20.30;;;1.00;99.90;;;;;;7369920;19;20154;-72
2024/02/27 04:48:37;;;;;;;49.30;20.35;;;1.10;99.90;;;;;;7374159;19;20022;-74
2024/02/27 04:51:07;;;;;;;47.47;21.50;;;1.10;99.90;;;;;;7360700;19;20015;-75
2024/02/27 04:53:37;;;;;;;48.63;21.73;;;1.30;99.90;;;;;;7378281;19;20021;-75
2024/02/27 04:56:07;;;;;;;52.13;21.50;;;1.30;99.90;;;;;;7365728;19;20021;-72
2024/02/27 04:58:36;;;;;;;53.90;21.20;;;1.40;99.90;;;;;;7373602;19;20019;-72
2024/02/27 05:01:03;;;;;;;52.70;21.83;;;1.50;99.90;;;;;;7358595;19;20526;-72
2024/02/27 05:03:29;;;;;;;51.70;22.55;;;1.60;99.90;;;;;;7371854;19;20018;-72
2024/02/27 05:05:56;;;;;;;52.63;21.85;;;1.70;99.90;;;;;;7374897;19;20018;-75
2024/02/27 05:08:22;;;;;;;48.97;23.52;;;1.70;99.90;;;;;;7368624;19;20023;-75
2024/02/27 05:10:48;;;;;;;56.15;22.73;;;1.80;99.90;;;;;;7372247;19;20014;-72
2024/02/27 05:13:15;;;;;;;57.95;26.90;;;1.90;99.90;;;;;;7369935;19;20034;-72
2024/02/27 05:15:41;;;;;;;70.38;35.25;;;2.00;99.90;;;;;;7371201;19;20018;-72
2024/02/27 05:18:07;;;;;;;59.35;26.55;;;2.00;99.90;;;;;;7367327;19;20015;-71
2024/02/27 05:20:37;;;;;;;62.95;26.20;;;2.00;99.90;;;;;;7365302;19;20023;-71
2024/02/27 05:23:04;;;;;;;50.45;23.45;;;2.10;99.90;;;;;;7372156;19;20390;-72
2024/02/27 05:25:31;;;;;;;56.75;24.48;;;2.10;99.90;;;;;;7363784;19;20018;-71
2024/02/27 05:27:57;;;;;;;51.25;24.13;;;2.20;99.90;;;;;;7378807;19;20025;-75
2024/02/27 05:30:24;;;;;;;55.78;25.00;;;2.20;99.90;;;;;;7364880;19;20030;-76
2024/02/27 05:32:53;;;;;;;58.58;26.98;;;2.20;99.90;;;;;;7370632;19;20015;-71
2024/02/27 05:35:22;;;;;;;59.78;25.65;;;2.30;99.90;;;;;;7370184;19;20781;-75
2024/02/27 05:37:49;;;;;;;47.67;23.73;;;2.30;99.90;;;;;;7371607;19;20019;-71
2024/02/27 05:40:15;;;;;;;50.80;25.00;;;2.30;99.90;;;;;;7368207;19;20029;-71
2024/02/27 05:42:42;;;;;;;53.42;24.20;;;2.40;99.90;;;;;;7369392;19;20010;-76
2024/02/27 05:45:09;;;;;;;58.83;25.77;;;2.40;99.90;;;;;;7373215;19;20493;-71
2024/02/27 05:47:35;;;;;;;52.65;24.70;;;2.50;99.90;;;;;;7373660;19;20011;-72
2024/02/27 05:50:03;;;;;;;57.83;25.67;;;2.50;99.90;;;;;;7373685;19;20015;-76
2024/02/27 05:52:29;;;;;;;50.20;24.17;;;2.50;99.90;;;;;;7379001;19;20006;-76
2024/02/27 05:54:55;;;;;;;53.33;25.08;;;2.50;99.90;;;;;;7378798;19;20039;-76
2024/02/27 05:57:22;;;;;;;50.72;23.95;;;2.60;99.90;;;;;;7373406;19;20101;-75
2024/02/27 05:59:51;;;;;;;58.92;25.83;;;2.60;99.90;;;;;;7375136;19;20015;-76
2024/02/27 06:02:18;;;;;;;53.63;25.35;;;2.60;99.90;;;;;;7372166;19;20014;-76
2024/02/27 06:04:45;;;;;;;54.38;25.92;;;2.70;99.90;;;;;;7375486;19;20013;-77
2024/02/27 06:07:12;;;;;;;45.05;21.60;;;2.70;99.90;;;;;;7371163;19;20596;-76
2024/02/27 06:09:40;;;;;;;45.83;22.55;;;2.70;99.90;;;;;;7369651;19;20014;-76
2024/02/27 06:12:10;;;;;;;49.42;23.73;;;2.70;99.90;;;;;;7362425;19;20047;-71
2024/02/27 06:14:38;;;;;;;41.05;22.27;;;2.70;99.90;;;;;;7368770;19;20041;-77
2024/02/27 06:17:06;;;;;;;39.38;19.90;;;2.80;99.90;;;;;;7371371;19;20026;-71
2024/02/27 06:19:33;;;;;;;41.03;21.30;;;2.80;99.90;;;;;;7372114;19;20015;-77
2024/02/27 06:22:11;;;;;;;43.50;24.10;;;2.80;99.90;;;;;;7375762;19;20471;-72
2024/02/27 06:24:41;;;;;;;38.83;22.25;;;2.80;99.90;;;;;;7371230;19;20014;-71
2024/02/27 06:27:09;;;;;;;36.22;20.02;;;2.90;99.90;;;;;;7373008;19;20030;-71
2024/02/27 06:29:35;;;;;;;37.13;21.90;;;3.00;99.90;;;;;;7370388;19;20014;-71
2024/02/27 06:32:03;;;;;;;40.67;20.50;;;3.00;99.90;;;;;;7368758;19;20074;-71
2024/02/27 06:34:30;;;;;;;73.25;50.53;;;3.00;99.90;;;;;;7371931;19;20018;-73
2024/02/27 06:36:57;;;;;;;36.33;21.83;;;3.00;99.90;;;;;;7375061;19;20086;-73
2024/02/27 06:39:23;;;;;;;45.30;31.15;;;3.00;99.90;;;;;;7369693;19;20021;-73
2024/02/27 06:41:51;;;;;;;34.65;20.33;;;3.00;99.90;;;;;;7375068;19;20984;-72
2024/02/27 06:44:18;;;;;;;29.50;19.45;;;3.10;99.90;;;;;;7372307;19;20020;-75
2024/02/27 06:46:44;;;;;;;30.73;19.02;;;3.10;99.90;;;;;;7372902;19;20102;-72
2024/02/27 06:49:11;;;;;;;32.95;18.73;;;3.10;99.90;;;;;;7370545;19;20022;-72
2024/02/27 06:51:39;;;;;;;32.65;20.13;;;3.20;99.90;;;;;;7372955;19;20113;-75
2024/02/27 06:54:06;;;;;;;28.27;18.85;;;3.20;99.90;;;;;;7373073;19;20043;-75
2024/02/27 06:56:33;;;;;;;28.83;18.77;;;3.20;99.90;;;;;;7369317;19;20035;-75
2024/02/27 06:59:03;;;;;;;29.67;18.88;;;3.30;99.90;;;;;;7370186;19;20045;-72
2024/02/27 07:01:32;;;;;;;29.67;19.25;;;3.30;99.90;;;;;;7371899;19;20023;-75
2024/02/27 07:03:59;;;;;;;28.48;18.95;;;3.40;99.90;;;;;;7371779;19;20038;-76
2024/02/27 07:06:25;;;;;;;27.10;18.38;;;3.40;99.90;;;;;;7369968;19;20025;-72
2024/02/27 07:08:52;;;;;;;25.35;18.00;;;3.40;99.90;;;;;;7367294;19;20018;-72
2024/02/27 07:11:19;;;;;;;26.88;18.23;;;3.40;99.90;;;;;;7366287;19;20036;-72
2024/02/27 07:13:45;;;;;;;25.60;17.75;;;3.50;99.90;;;;;;7370839;19;20018;-75
2024/02/27 07:16:11;;;;;;;29.23;20.58;;;3.50;99.90;;;;;;7368742;19;20074;-74
2024/02/27 07:18:38;;;;;;;25.40;17.60;;;3.60;99.90;;;;;;7364816;19;20097;-74
2024/02/27 07:21:05;;;;;;;22.58;16.08;;;3.60;99.90;;;;;;7366145;19;20101;-72
2024/02/27 07:23:33;;;;;;;25.27;17.92;;;3.70;99.90;;;;;;7366021;19;20017;-75
2024/02/27 07:26:00;;;;;;;22.85;17.02;;;3.70;99.90;;;;;;7367625;19;20494;-71
2024/02/27 07:28:27;;;;;;;22.92;15.93;;;3.70;99.90;;;;;;7369749;19;20022;-71
2024/02/27 07:30:54;;;;;;;23.65;15.63;;;3.80;99.90;;;;;;7365511;19;20482;-75
2024/02/27 07:33:23;;;;;;;21.63;16.15;;;3.80;99.90;;;;;;7367600;19;20010;-75
2024/02/27 07:35:54;;;;;;;23.00;16.67;;;3.80;99.90;;;;;;7369376;19;20015;-71
2024/02/27 07:38:22;;;;;;;24.98;16.70;;;3.90;99.90;;;;;;7368222;19;20520;-67
2024/02/27 07:40:51;;;;;;;21.98;16.00;;;3.90;99.90;;;;;;7367850;19;20026;-75
2024/02/27 07:43:19;;;;;;;20.02;15.80;;;4.00;99.90;;;;;;7369499;19;20018;-74
2024/02/27 07:45:51;;;;;;;20.25;16.25;;;4.00;99.90;;;;;;7369335;19;20007;-70
2024/02/27 07:48:22;;;;;;;23.73;17.10;;;4.10;99.90;;;;;;7367083;19;20447;-70
2024/02/27 07:50:54;;;;;;;;;;;4.10;99.90;;;;;;7364023;19;20023;-69
2024/02/27 07:53:22;;;;;;;23.65;16.98;;;4.20;99.90;;;;;;7369717;19;19968;-70
2024/02/27 07:55:49;;;;;;;39.80;31.23;;;4.20;99.90;;;;;;7369435;19;20033;-72
2024/02/27 07:58:16;;;;;;;23.40;16.85;;;4.30;99.90;;;;;;7370096;19;20025;-73
2024/02/27 08:00:42;;;;;;;23.17;17.05;;;4.30;99.90;;;;;;7361722;19;20018;-72
2024/02/27 08:03:09;;;;;;;22.90;19.00;;;4.30;99.90;;;;;;7363351;19;20014;-70
2024/02/27 08:05:36;;;;;;;28.15;22.27;;;4.40;99.90;;;;;;7363466;19;20025;-75
2024/02/27 08:08:05;;;;;;;20.27;18.02;;;4.40;99.90;;;;;;7367515;19;20022;-78
2024/02/27 08:10:31;;;;;;;19.40;16.40;;;4.40;99.90;;;;;;7364293;19;20025;-72
2024/02/27 08:13:01;;;;;;;18.90;16.17;;;4.40;99.90;;;;;;7367720;19;20018;-73
2024/02/27 08:15:27;;;;;;;19.30;15.70;;;4.40;99.90;;;;;;7366335;19;20037;-71
2024/02/27 08:17:54;;;;;;;19.75;16.65;;;4.40;99.90;;;;;;7363513;19;20377;-72
2024/02/27 08:20:20;;;;;;;21.25;16.73;;;4.40;99.90;;;;;;7364118;19;20026;-69
2024/02/27 08:22:47;;;;;;;22.20;16.42;;;4.40;99.90;;;;;;7369296;19;20113;-68
2024/02/27 08:25:13;;;;;;;23.63;18.10;;;4.50;99.90;;;;;;7367575;19;20030;-68
2024/02/27 08:27:40;;;;;;;18.42;15.77;;;4.50;99.90;;;;;;7369145;19;20026;-68
2024/02/27 08:30:07;;;;;;;20.05;16.25;;;4.60;99.90;;;;;;7366595;19;20022;-68
2024/02/27 08:32:33;;;;;;;18.23;15.80;;;4.70;99.90;;;;;;7368949;19;20038;-67
2024/02/27 08:35:04;;;;;;;21.00;17.40;;;4.70;99.90;;;;;;7371463;19;20030;-70
2024/02/27 08:37:31;;;;;;;24.98;19.80;;;4.80;99.90;;;;;;7373941;19;20022;-68
2024/02/27 08:39:58;;;;;;;18.77;16.75;;;4.90;99.90;;;;;;7374491;19;20451;-68
2024/02/27 08:42:24;;;;;;;20.40;16.48;;;4.90;99.90;;;;;;7371705;19;20549;-70
2024/02/27 08:44:52;;;;;;;19.88;16.30;;;5.00;99.90;;;;;;7375369;19;20033;-72
2024/02/27 08:47:18;;;;;;;19.40;17.02;;;5.00;99.90;;;;;;7371436;19;20041;-74
2024/02/27 08:49:46;;;;;;;18.50;15.50;;;5.10;99.90;;;;;;7371665;19;20014;-70
2024/02/27 08:52:13;;;;;;;19.52;15.50;;;5.10;99.90;;;;;;7368683;19;20026;-74
2024/02/27 08:54:40;;;;;;;16.67;14.93;;;5.10;99.90;;;;;;7375021;19;20561;-70
2024/02/27 08:57:07;;;;;;;26.42;21.88;;;5.10;99.90;;;;;;7365896;19;20014;-74
2024/02/27 08:59:35;;;;;;;18.58;15.23;;;5.10;99.90;;;;;;7370311;19;20493;-72
2024/02/27 09:02:05;;;;;;;17.88;15.30;;;5.10;99.90;;;;;;7374579;19;20018;-73
2024/02/27 09:04:36;;;;;;;17.67;14.65;;;5.10;99.90;;;;;;7374855;19;20033;-74
2024/02/27 09:07:03;;;;;;;17.45;14.52;;;5.10;99.90;;;;;;7374217;19;20085;-73
2024/02/27 09:09:30;;;;;;;18.58;15.40;;;5.10;99.90;;;;;;7370008;19;20490;-73
2024/02/27 09:11:58;;;;;;;17.52;15.25;;;5.10;99.90;;;;;;7373157;19;20015;-73
2024/02/27 09:14:25;;;;;;;15.98;14.07;;;5.10;99.90;;;;;;7368784;19;20022;-73
2024/02/27 09:16:53;;;;;;;17.48;15.15;;;5.20;99.90;;;;;;7377359;19;20459;-73
2024/02/27 09:19:25;;;;;;;17.15;14.75;;;5.20;99.90;;;;;;7372408;19;20359;-69
2024/02/27 09:21:52;;;;;;;16.70;14.48;;;5.20;99.90;;;;;;7374509;19;20014;-73
2024/02/27 09:24:23;;;;;;;18.23;14.52;;;5.20;99.90;;;;;;7371207;19;20045;-73
2024/02/27 09:26:52;;;;;;;18.42;15.75;;;5.20;99.90;;;;;;7372957;19;20011;-68
2024/02/27 09:29:19;;;;;;;19.52;15.98;;;5.20;99.90;;;;;;7372013;19;20706;-68
2024/02/27 09:31:47;;;;;;;17.08;14.93;;;5.20;99.90;;;;;;7369845;19;20014;-69
2024/02/27 09:34:15;;;;;;;17.83;15.15;;;5.30;99.90;;;;;;7371561;19;20074;-73
2024/02/27 09:36:45;;;;;;;15.80;13.02;;;5.30;99.90;;;;;;7370919;19;20748;-72
2024/02/27 09:39:13;;;;;;;20.90;16.80;;;5.30;99.90;;;;;;7367794;19;20010;-72
2024/02/27 09:41:58;;;;;;;17.10;14.60;;;5.30;99.90;;;;;;7371164;19;20017;-72
2024/02/27 09:44:25;;;;;;;16.02;14.18;;;5.40;99.90;;;;;;7366985;19;20014;-68
2024/02/27 09:46:53;;;;;;;19.17;14.07;;;5.60;99.90;;;;;;7365488;19;20021;-68
2024/02/27 09:49:23;;;;;;;16.70;14.90;;;5.80;99.90;;;;;;7365290;19;20023;-73
2024/02/27 09:51:55;;;;;;;16.88;14.40;;;6.30;99.90;;;;;;7367735;19;20018;-73
2024/02/27 09:54:24;;;;;;;18.83;16.20;;;6.70;99.90;;;;;;7376040;19;20790;-72
2024/02/27 09:56:56;;;;;;;19.35;16.20;;;7.00;99.90;;;;;;7366719;19;20029;-75
2024/02/27 09:59:24;;;;;;;17.42;15.55;;;7.30;99.90;;;;;;7367633;19;20018;-68
2024/02/27 10:01:53;;;;;;;17.10;14.93;;;7.40;99.90;;;;;;7368368;19;20522;-69
2024/02/27 10:04:23;;;;;;;17.13;15.10;;;7.60;99.90;;;;;;7368926;19;20022;-68
2024/02/27 10:06:49;;;;;;;14.27;12.75;;;7.60;99.90;;;;;;7366467;19;20374;-68
2024/02/27 10:09:18;;;;;;;15.93;13.25;;;7.60;99.90;;;;;;7369756;19;20022;-68
2024/02/27 10:11:44;;;;;;;14.88;13.23;;;7.40;99.90;;;;;;7369493;19;20018;-73
2024/02/27 10:14:30;;;;;;;17.20;15.32;;;7.40;99.90;;;;;;7372845;19;20049;-68
2024/02/27 10:16:57;;;;;;;14.32;12.82;;;7.50;99.90;;;;;;7371013;19;20019;-68
2024/02/27 10:19:31;;;;;;;14.35;12.35;;;7.60;99.90;;;;;;7370463;19;20499;-69
2024/02/27 10:21:58;;;;;;;13.98;12.48;;;7.50;99.90;;;;;;7370121;19;20050;-68
2024/02/27 10:24:28;;;;;;;15.63;13.93;;;7.50;99.90;;;;;;7370566;19;20018;-68
2024/02/27 10:27:01;;;;;;;13.50;12.10;;;7.50;99.90;;;;;;7366910;19;20018;-69
2024/02/27 10:29:29;;;;;;;13.70;12.05;;;7.60;99.90;;;;;;7372195;19;20995;-69
2024/02/27 10:31:56;;;;;;;13.60;12.18;;;7.70;99.90;;;;;;7370290;19;20043;-71
2024/02/27 10:34:26;;;;;;;15.63;14.00;;;7.70;99.90;;;;;;7370353;19;20026;-68
2024/02/27 10:37:02;;;;;;;16.20;14.48;;;8.10;99.90;;;;;;7367585;19;20041;-68
2024/02/27 10:39:33;;;;;;;36.60;30.42;;;8.50;99.90;;;;;;7365747;19;20041;-68
2024/02/27 10:42:06;;;;;;;15.80;13.90;;;8.60;99.90;;;;;;7373941;19;20083;-72
2024/02/27 10:44:36;;;;;;;14.80;13.30;;;8.70;99.90;;;;;;7361832;19;20014;-69
2024/02/27 10:47:05;;;;;;;15.38;13.77;;;8.60;99.90;;;;;;7374492;19;20046;-68
2024/02/27 10:49:35;;;;;;;15.45;13.48;;;8.50;99.90;;;;;;7363574;19;20022;-65
2024/02/27 10:52:02;;;;;;;15.85;13.63;;;8.30;99.90;;;;;;7368777;19;20042;-64
2024/02/27 10:54:30;;;;;;;15.23;13.73;;;8.30;99.90;;;;;;7365799;19;20777;-67
2024/02/27 10:56:57;;;;;;;16.92;15.13;;;8.10;99.90;;;;;;7369247;19;20361;-67
2024/02/27 10:59:27;;;;;;;15.02;12.85;;;8.10;99.90;;;;;;7365964;19;20031;-67
2024/02/27 11:01:58;;;;;;;14.10;12.57;;;7.90;99.90;;;;;;7368448;19;20482;-68
2024/02/27 11:04:38;;;;;;;15.55;13.63;;;8.00;99.90;;;;;;7370149;19;20014;-68
2024/02/27 11:07:08;;;;;;;15.50;13.70;;;8.10;99.90;;;;;;7372475;19;20881;-67
2024/02/27 11:09:36;;;;;;;16.35;14.65;;;8.10;99.90;;;;;;7365834;19;20220;-68
2024/02/27 11:12:17;;;;;;;15.07;13.57;;;8.00;99.90;;;;;;7367812;19;20043;-68
2024/02/27 11:14:59;;;;;;;17.40;15.07;;;8.10;99.90;;;;;;7367631;19;20028;-67
2024/02/27 11:17:28;;;;;;;15.15;13.32;;;8.20;99.90;;;;;;7365089;19;20014;-67
2024/02/27 11:20:00;;;;;;;14.82;13.23;;;8.10;99.90;;;;;;7368677;19;20014;-73
2024/02/27 11:22:37;;;;;;;16.48;14.70;;;8.20;99.90;;;;;;7369487;19;20505;-74
2024/02/27 11:25:08;;;;;;;14.55;12.95;;;8.10;99.90;;;;;;7370528;19;20122;-74
2024/02/27 11:27:36;;;;;;;15.18;13.57;;;8.00;99.90;;;;;;7361928;19;20022;-67
2024/02/27 11:30:06;;;;;;;13.90;12.50;;;7.90;99.90;;;;;;7367449;19;20021;-68
2024/02/27 11:32:36;;;;;;;15.63;13.93;;;8.00;99.90;;;;;;7365602;19;20090;-67
2024/02/27 11:35:06;;;;;;;16.23;14.63;;;8.00;99.90;;;;;;7368625;19;20010;-74
2024/02/27 11:37:37;;;;;;;14.55;12.90;;;8.10;99.90;;;;;;7369868;19;20022;-67
2024/02/27 11:40:07;;;;;;;15.38;13.80;;;8.10;99.90;;;;;;7368590;19;20082;-73
2024/02/27 11:42:42;;;;;;;18.73;13.80;;;8.00;99.90;;;;;;7368295;19;20007;-73
2024/02/27 11:45:14;;;;;;;15.10;13.48;;;8.00;99.90;;;;;;7370801;19;20018;-74
2024/02/27 11:47:51;;;;;;;14.95;13.00;;;8.10;99.90;;;;;;7368826;19;20047;-68
2024/02/27 11:50:37;;;;;;;14.13;12.70;;;8.10;99.90;;;;;;7366282;19;20385;-73
2024/02/27 11:53:17;;;;;;;14.93;13.32;;;8.00;99.90;;;;;;7367213;19;20011;-67
2024/02/27 11:55:50;;;;;;;15.52;13.93;;;8.10;99.90;;;;;;7370311;19;20007;-67
2024/02/27 11:58:17;;;;;;;16.00;14.35;;;8.10;99.90;;;;;;7363886;19;20766;-67
2024/02/27 12:00:47;;;;;;;14.60;12.52;;;8.30;99.90;;;;;;7365393;19;20763;-65
2024/02/27 12:03:15;;;;;;;14.70;13.20;;;8.40;99.90;;;;;;7364216;19;20041;-67
2024/02/27 12:05:54;;;;;;;15.32;13.82;;;8.30;99.90;;;;;;7366661;19;20010;-66
2024/02/27 12:08:24;;;;;;;14.90;12.75;;;8.10;99.90;;;;;;7358149;19;20018;-71
2024/02/27 12:10:53;;;;;;;14.98;12.93;;;8.10;99.90;;;;;;7375947;19;20027;-66
2024/02/27 12:13:21;;;;;;;16.42;13.93;;;8.10;99.90;;;;;;7371024;19;20018;-66
2024/02/27 12:15:56;;;;;;;15.60;13.93;;;8.10;99.90;;;;;;7378509;19;20021;-65
2024/02/27 12:18:25;;;;;;;14.38;12.93;;;8.10;99.90;;;;;;7368598;19;20015;-72
2024/02/27 12:21:00;;;;;;;17.35;14.38;;;8.20;99.90;;;;;;7370578;19;20027;-66
2024/02/27 12:23:32;;;;;;;15.52;13.13;;;8.20;99.90;;;;;;7368088;19;20023;-70
2024/02/27 12:26:00;;;;;;;14.82;13.23;;;8.10;99.90;;;;;;7375335;19;20125;-66
2024/02/27 12:28:29;;;;;;;16.40;13.48;;;8.30;99.90;;;;;;7368250;19;20014;-66
2024/02/27 12:30:57;;;;;;;14.40;12.90;;;8.40;99.90;;;;;;7374894;19;20015;-66
2024/02/27 12:33:24;;;;;;;14.98;13.48;;;8.50;99.90;;;;;;7370341;19;20117;-71
2024/02/27 12:35:53;;;;;;;14.63;13.05;;;8.70;99.90;;;;;;7377232;19;20094;-71
2024/02/27 12:38:21;;;;;;;16.60;14.30;;;8.80;99.90;;;;;;7369818;19;20694;-70
2024/02/27 12:40:48;;;;;;;16.20;13.55;;;8.90;99.90;;;;;;7372786;19;20019;-71
2024/02/27 12:43:15;;;;;;;15.32;13.63;;;8.80;99.90;;;;;;7372310;19;20018;-66
2024/02/27 12:45:42;;;;;;;16.63;13.68;;;8.80;99.90;;;;;;7374272;19;20022;-71